sensor_id;sensor_type;location;lat;lon;timestamp;P1;durP1;ratioP1;P2;durP2;ratioP2
49071;SDS011;52656;52.610;10.236;2023-04-24T16:23:16;5.63;;;2.43;;
49071;SDS011;52656;52.610;10.236;2023-04-24T16:25:41;4.45;;;2.72;;
49071;SDS011;52656;52.610;10.236;2023-04-24T16:30:32;5.63;;;2.65;;
49071;SDS011;52656;52.610;10.236;2023-04-24T16:35:23;6.07;;;3.30;;
49071;SDS011;52656;52.610;10.236;2023-04-24T16:37:48;6.78;;;2.78;;
49071;SDS011;52656;52.610;10.236;2023-04-24T16:40:13;5.07;;;3.15;;
49071;SDS011;52656;52.610;10.236;2023-04-24T16:42:39;6.97;;;3.42;;
49071;SDS011;52656;52.610;10.236;2023-04-24T16:45:04;6.80;;;2.85;;
49071;SDS011;52656;52.610;10.236;2023-04-24T16:49:56;5.18;;;2.83;;
49071;SDS011;52656;52.610;10.236;2023-04-24T16:52:21;9.18;;;3.50;;
49071;SDS011;52656;52.610;10.236;2023-04-24T16:57:11;5.72;;;3.42;;
49071;SDS011;52656;52.610;10.236;2023-04-24T16:59:37;10.00;;;3.90;;
49071;SDS011;52656;52.610;10.236;2023-04-24T17:04:28;5.88;;;3.20;;
49071;SDS011;52656;52.610;10.236;2023-04-24T17:06:53;6.40;;;3.53;;
49071;SDS011;52656;52.610;10.236;2023-04-24T17:11:45;7.47;;;3.78;;
49071;SDS011;52656;52.610;10.236;2023-04-24T17:14:10;7.45;;;3.30;;
49071;SDS011;52656;52.610;10.236;2023-04-24T17:16:36;6.80;;;3.42;;
49071;SDS011;52656;52.610;10.236;2023-04-24T17:21:28;8.20;;;3.70;;
49071;SDS011;52656;52.610;10.236;2023-04-24T17:23:53;6.57;;;3.53;;
49071;SDS011;52656;52.610;10.236;2023-04-24T17:26:19;7.10;;;3.17;;
49071;SDS011;52656;52.610;10.236;2023-04-24T17:28:44;11.35;;;4.35;;
49071;SDS011;52656;52.610;10.236;2023-04-24T17:31:09;6.22;;;3.22;;
49071;SDS011;52656;52.610;10.236;2023-04-24T17:33:35;5.10;;;2.80;;
49071;SDS011;52656;52.610;10.236;2023-04-24T17:38:26;5.47;;;2.22;;
49071;SDS011;52656;52.610;10.236;2023-04-24T17:40:52;3.83;;;2.30;;
49071;SDS011;52656;52.610;10.236;2023-04-24T17:43:18;5.53;;;1.85;;
49071;SDS011;52656;52.610;10.236;2023-04-24T17:45:44;3.25;;;1.83;;
49071;SDS011;52656;52.610;10.236;2023-04-24T17:48:10;3.55;;;1.60;;
49071;SDS011;52656;52.610;10.236;2023-04-24T17:50:37;3.72;;;1.85;;
49071;SDS011;52656;52.610;10.236;2023-04-24T17:53:03;4.70;;;1.73;;
49071;SDS011;52656;52.610;10.236;2023-04-24T17:55:28;5.05;;;2.08;;
49071;SDS011;52656;52.610;10.236;2023-04-24T17:57:53;6.32;;;2.15;;
49071;SDS011;52656;52.610;10.236;2023-04-24T18:00:19;4.35;;;2.05;;
49071;SDS011;52656;52.610;10.236;2023-04-24T18:02:45;3.33;;;1.50;;
49071;SDS011;52656;52.610;10.236;2023-04-24T18:05:10;6.33;;;2.83;;
49071;SDS011;52656;52.610;10.236;2023-04-24T18:07:35;5.13;;;2.20;;
49071;SDS011;52656;52.610;10.236;2023-04-24T18:10:01;3.00;;;1.80;;
49071;SDS011;52656;52.610;10.236;2023-04-24T18:12:26;4.18;;;1.98;;
49071;SDS011;52656;52.610;10.236;2023-04-24T18:14:52;5.82;;;1.95;;
49071;SDS011;52656;52.610;10.236;2023-04-24T18:17:17;4.78;;;2.38;;
49071;SDS011;52656;52.610;10.236;2023-04-24T18:19:42;4.70;;;2.28;;
49071;SDS011;52656;52.610;10.236;2023-04-24T18:22:07;5.70;;;2.33;;
49071;SDS011;52656;52.610;10.236;2023-04-24T18:24:33;4.67;;;2.43;;
49071;SDS011;52656;52.610;10.236;2023-04-24T18:26:58;4.68;;;2.08;;
49071;SDS011;52656;52.610;10.236;2023-04-24T18:29:23;6.03;;;2.17;;
49071;SDS011;52656;52.610;10.236;2023-04-24T18:31:49;4.78;;;2.08;;
49071;SDS011;52656;52.610;10.236;2023-04-24T18:34:14;4.10;;;2.15;;
49071;SDS011;52656;52.610;10.236;2023-04-24T18:36:39;3.38;;;2.22;;
49071;SDS011;52656;52.610;10.236;2023-04-24T18:39:05;5.78;;;2.20;;
49071;SDS011;52656;52.610;10.236;2023-04-24T18:41:30;4.60;;;2.17;;
49071;SDS011;52656;52.610;10.236;2023-04-24T18:43:55;2.95;;;1.90;;
49071;SDS011;52656;52.610;10.236;2023-04-24T18:46:23;4.50;;;2.03;;
49071;SDS011;52656;52.610;10.236;2023-04-24T18:48:48;5.22;;;2.60;;
49071;SDS011;52656;52.610;10.236;2023-04-24T18:51:13;5.43;;;2.45;;
49071;SDS011;52656;52.610;10.236;2023-04-24T18:53:39;4.57;;;2.30;;
49071;SDS011;52656;52.610;10.236;2023-04-24T18:56:04;7.60;;;2.40;;
49071;SDS011;52656;52.610;10.236;2023-04-24T18:58:29;4.47;;;2.00;;
49071;SDS011;52656;52.610;10.236;2023-04-24T19:00:55;4.53;;;2.20;;
49071;SDS011;52656;52.610;10.236;2023-04-24T19:03:21;6.45;;;2.40;;
49071;SDS011;52656;52.610;10.236;2023-04-24T19:05:46;4.07;;;2.17;;
49071;SDS011;52656;52.610;10.236;2023-04-24T19:08:11;7.00;;;2.65;;
49071;SDS011;52656;52.610;10.236;2023-04-24T19:10:36;7.45;;;2.78;;
49071;SDS011;52656;52.610;10.236;2023-04-24T19:13:02;4.50;;;2.67;;
49071;SDS011;52656;52.610;10.236;2023-04-24T19:15:27;4.78;;;2.50;;
49071;SDS011;52656;52.610;10.236;2023-04-24T19:17:54;7.40;;;2.90;;
49071;SDS011;52656;52.610;10.236;2023-04-24T19:20:19;7.53;;;2.33;;
49071;SDS011;52656;52.610;10.236;2023-04-24T19:22:45;4.65;;;2.20;;
49071;SDS011;52656;52.610;10.236;2023-04-24T19:25:11;8.02;;;2.47;;
49071;SDS011;52656;52.610;10.236;2023-04-24T19:27:37;4.07;;;2.40;;
49071;SDS011;52656;52.610;10.236;2023-04-24T19:30:02;5.60;;;2.47;;
49071;SDS011;52656;52.610;10.236;2023-04-24T19:32:28;4.43;;;2.38;;
49071;SDS011;52656;52.610;10.236;2023-04-24T19:34:53;7.47;;;2.75;;
49071;SDS011;52656;52.610;10.236;2023-04-24T19:37:19;5.40;;;2.60;;
49071;SDS011;52656;52.610;10.236;2023-04-24T19:39:44;4.70;;;2.42;;
49071;SDS011;52656;52.610;10.236;2023-04-24T19:42:09;4.38;;;2.30;;
49071;SDS011;52656;52.610;10.236;2023-04-24T19:44:35;10.85;;;2.70;;
49071;SDS011;52656;52.610;10.236;2023-04-24T19:47:00;8.63;;;2.70;;
49071;SDS011;52656;52.610;10.236;2023-04-24T19:49:25;5.63;;;2.47;;
49071;SDS011;52656;52.610;10.236;2023-04-24T19:51:51;6.43;;;2.70;;
49071;SDS011;52656;52.610;10.236;2023-04-24T19:54:16;3.65;;;2.40;;
49071;SDS011;52656;52.610;10.236;2023-04-24T19:56:44;4.50;;;2.30;;
49071;SDS011;52656;52.610;10.236;2023-04-24T19:59:09;4.30;;;2.20;;
49071;SDS011;52656;52.610;10.236;2023-04-24T20:01:34;5.55;;;2.40;;
49071;SDS011;52656;52.610;10.236;2023-04-24T20:04:00;8.63;;;2.38;;
49071;SDS011;52656;52.610;10.236;2023-04-24T20:06:25;5.47;;;1.95;;
49071;SDS011;52656;52.610;10.236;2023-04-24T20:08:51;4.83;;;2.23;;
49071;SDS011;52656;52.610;10.236;2023-04-24T20:11:16;5.50;;;2.10;;
49071;SDS011;52656;52.610;10.236;2023-04-24T20:13:41;8.00;;;2.83;;
49071;SDS011;52656;52.610;10.236;2023-04-24T20:16:07;5.25;;;2.53;;
49071;SDS011;52656;52.610;10.236;2023-04-24T20:18:32;6.35;;;2.50;;
49071;SDS011;52656;52.610;10.236;2023-04-24T20:20:57;5.50;;;2.50;;
49071;SDS011;52656;52.610;10.236;2023-04-24T20:23:23;5.47;;;2.75;;
49071;SDS011;52656;52.610;10.236;2023-04-24T20:28:17;6.72;;;2.60;;
49071;SDS011;52656;52.610;10.236;2023-04-24T20:30:42;6.47;;;2.67;;
49071;SDS011;52656;52.610;10.236;2023-04-24T20:33:08;6.45;;;2.80;;
49071;SDS011;52656;52.610;10.236;2023-04-24T20:35:33;5.28;;;2.67;;
49071;SDS011;52656;52.610;10.236;2023-04-24T20:37:59;5.28;;;2.45;;
49071;SDS011;52656;52.610;10.236;2023-04-24T20:40:27;6.35;;;2.67;;
49071;SDS011;52656;52.610;10.236;2023-04-24T20:42:53;7.32;;;3.00;;
49071;SDS011;52656;52.610;10.236;2023-04-24T20:45:20;7.40;;;2.78;;
49071;SDS011;52656;52.610;10.236;2023-04-24T20:47:46;5.60;;;2.92;;
49071;SDS011;52656;52.610;10.236;2023-04-24T20:50:12;7.85;;;3.22;;
49071;SDS011;52656;52.610;10.236;2023-04-24T20:52:37;7.90;;;3.03;;
49071;SDS011;52656;52.610;10.236;2023-04-24T20:55:03;6.53;;;3.50;;
49071;SDS011;52656;52.610;10.236;2023-04-24T20:57:29;5.95;;;3.00;;
49071;SDS011;52656;52.610;10.236;2023-04-24T20:59:55;7.53;;;3.00;;
49071;SDS011;52656;52.610;10.236;2023-04-24T21:02:20;6.43;;;3.07;;
49071;SDS011;52656;52.610;10.236;2023-04-24T21:04:45;9.32;;;3.20;;
49071;SDS011;52656;52.610;10.236;2023-04-24T21:07:10;6.03;;;2.60;;
49071;SDS011;52656;52.610;10.236;2023-04-24T21:09:37;10.60;;;2.92;;
49071;SDS011;52656;52.610;10.236;2023-04-24T21:12:02;8.25;;;3.17;;
49071;SDS011;52656;52.610;10.236;2023-04-24T21:14:28;6.80;;;2.90;;
49071;SDS011;52656;52.610;10.236;2023-04-24T21:16:53;8.43;;;3.25;;
49071;SDS011;52656;52.610;10.236;2023-04-24T21:19:21;7.97;;;3.13;;
49071;SDS011;52656;52.610;10.236;2023-04-24T21:21:47;8.68;;;4.03;;
49071;SDS011;52656;52.610;10.236;2023-04-24T21:24:12;9.40;;;3.22;;
49071;SDS011;52656;52.610;10.236;2023-04-24T21:26:37;7.22;;;3.38;;
49071;SDS011;52656;52.610;10.236;2023-04-24T21:29:02;7.95;;;3.35;;
49071;SDS011;52656;52.610;10.236;2023-04-24T21:31:28;12.10;;;3.90;;
49071;SDS011;52656;52.610;10.236;2023-04-24T21:33:53;8.02;;;3.58;;
49071;SDS011;52656;52.610;10.236;2023-04-24T21:36:18;14.30;;;4.43;;
49071;SDS011;52656;52.610;10.236;2023-04-24T21:38:44;8.65;;;3.55;;
49071;SDS011;52656;52.610;10.236;2023-04-24T21:41:09;6.93;;;3.83;;
49071;SDS011;52656;52.610;10.236;2023-04-24T21:43:35;7.47;;;3.92;;
49071;SDS011;52656;52.610;10.236;2023-04-24T21:46:01;8.00;;;3.50;;
49071;SDS011;52656;52.610;10.236;2023-04-24T21:48:26;8.32;;;3.63;;
49071;SDS011;52656;52.610;10.236;2023-04-24T21:50:51;5.87;;;3.40;;
49071;SDS011;52656;52.610;10.236;2023-04-24T21:53:17;8.93;;;3.83;;
49071;SDS011;52656;52.610;10.236;2023-04-24T21:55:43;8.15;;;3.90;;
49071;SDS011;52656;52.610;10.236;2023-04-24T21:58:08;9.43;;;4.05;;
49071;SDS011;52656;52.610;10.236;2023-04-24T22:00:34;8.85;;;3.45;;
49071;SDS011;52656;52.610;10.236;2023-04-24T22:03:00;10.55;;;3.80;;
49071;SDS011;52656;52.610;10.236;2023-04-24T22:05:25;9.63;;;3.85;;
49071;SDS011;52656;52.610;10.236;2023-04-24T22:07:51;10.65;;;3.90;;
49071;SDS011;52656;52.610;10.236;2023-04-24T22:10:18;11.00;;;4.20;;
49071;SDS011;52656;52.610;10.236;2023-04-24T22:12:43;6.88;;;3.30;;
49071;SDS011;52656;52.610;10.236;2023-04-24T22:15:09;11.50;;;4.10;;
49071;SDS011;52656;52.610;10.236;2023-04-24T22:17:34;6.53;;;3.70;;
49071;SDS011;52656;52.610;10.236;2023-04-24T22:20:00;8.73;;;3.50;;
49071;SDS011;52656;52.610;10.236;2023-04-24T22:22:27;8.60;;;3.70;;
49071;SDS011;52656;52.610;10.236;2023-04-24T22:24:52;9.30;;;3.88;;
49071;SDS011;52656;52.610;10.236;2023-04-24T22:27:18;11.77;;;4.20;;
49071;SDS011;52656;52.610;10.236;2023-04-24T22:29:43;10.98;;;3.90;;
49071;SDS011;52656;52.610;10.236;2023-04-24T22:32:08;10.27;;;4.18;;
49071;SDS011;52656;52.610;10.236;2023-04-24T22:34:34;9.95;;;4.18;;
49071;SDS011;52656;52.610;10.236;2023-04-24T22:36:59;11.35;;;4.95;;
49071;SDS011;52656;52.610;10.236;2023-04-24T22:39:25;12.20;;;4.22;;
49071;SDS011;52656;52.610;10.236;2023-04-24T22:41:51;11.75;;;3.92;;
49071;SDS011;52656;52.610;10.236;2023-04-24T22:44:16;11.00;;;4.53;;
49071;SDS011;52656;52.610;10.236;2023-04-24T22:46:41;10.18;;;3.80;;
49071;SDS011;52656;52.610;10.236;2023-04-24T22:49:07;14.57;;;4.60;;
49071;SDS011;52656;52.610;10.236;2023-04-24T22:51:32;11.02;;;4.22;;
49071;SDS011;52656;52.610;10.236;2023-04-24T22:56:26;11.32;;;4.05;;
49071;SDS011;52656;52.610;10.236;2023-04-24T22:58:51;12.65;;;4.30;;
49071;SDS011;52656;52.610;10.236;2023-04-24T23:01:17;7.88;;;3.70;;
49071;SDS011;52656;52.610;10.236;2023-04-24T23:03:42;10.37;;;4.27;;
49071;SDS011;52656;52.610;10.236;2023-04-24T23:06:07;13.40;;;4.40;;
49071;SDS011;52656;52.610;10.236;2023-04-24T23:08:33;9.27;;;4.30;;
49071;SDS011;52656;52.610;10.236;2023-04-24T23:10:58;9.52;;;3.97;;
49071;SDS011;52656;52.610;10.236;2023-04-24T23:13:23;7.90;;;4.05;;
49071;SDS011;52656;52.610;10.236;2023-04-24T23:18:15;12.43;;;4.82;;
49071;SDS011;52656;52.610;10.236;2023-04-24T23:20:40;9.23;;;4.80;;
49071;SDS011;52656;52.610;10.236;2023-04-24T23:23:06;10.70;;;4.17;;
49071;SDS011;52656;52.610;10.236;2023-04-24T23:25:31;10.95;;;4.38;;
49071;SDS011;52656;52.610;10.236;2023-04-24T23:27:57;9.75;;;3.75;;
49071;SDS011;52656;52.610;10.236;2023-04-24T23:30:22;10.07;;;4.53;;
49071;SDS011;52656;52.610;10.236;2023-04-24T23:32:48;10.35;;;4.78;;
49071;SDS011;52656;52.610;10.236;2023-04-24T23:35:13;11.75;;;4.10;;
49071;SDS011;52656;52.610;10.236;2023-04-24T23:37:39;9.70;;;4.00;;
49071;SDS011;52656;52.610;10.236;2023-04-24T23:40:05;9.07;;;4.40;;
49071;SDS011;52656;52.610;10.236;2023-04-24T23:42:33;9.18;;;4.57;;
49071;SDS011;52656;52.610;10.236;2023-04-24T23:44:59;8.68;;;4.47;;
49071;SDS011;52656;52.610;10.236;2023-04-24T23:47:25;11.80;;;4.43;;
49071;SDS011;52656;52.610;10.236;2023-04-24T23:49:50;9.37;;;4.63;;
49071;SDS011;52656;52.610;10.236;2023-04-24T23:52:15;9.03;;;4.87;;
49071;SDS011;52656;52.610;10.236;2023-04-24T23:54:40;8.68;;;3.95;;
49071;SDS011;52656;52.610;10.236;2023-04-24T23:57:06;13.50;;;4.90;;
49071;SDS011;52656;52.610;10.236;2023-04-24T23:59:31;9.80;;;4.43;;
